Latest Weather Observations for Solomon Airport

IDW60801

Issued at 12:03 pm WST Saturday 22 February 2020 (issued every 10 minutes, with the page automatically refreshed every 10 minutes)

About weather observations | Map of weather stations | Latest weather observations for WA | Other Formats
Station Details ID: 505060 Name: SOLOMON AIRPORT Lat: -22.25 Lon: 117.85 Height: 611.47 m
Data from the previous 72 hours. | See also: Recent months for locations in Western Australia
Date/Time
WST
Temp
°C
App
Temp
°C
Dew
Point
°C
Rel
Hum
%
Delta-T
°C
Wind Press
QNH
hPa
Press
MSL
hPa
Rain since
9am
mm
Dir  Spd
km/h
Gust
km/h
Spd
kts
Gust
kts
22/12:00pm 31.7 - 20.0 50 7.9 - - - - - 1013.7 1008.3 0.0
22/11:30am 30.3 - 20.2 54 6.8 - - - - - 1014.2 1008.7 0.0
22/11:00am 30.1 - 20.4 56 6.6 - - - - - 1014.5 1009.0 0.0
22/10:30am 29.3 - 21.0 61 5.6 - - - - - 1014.9 1009.4 0.0
22/10:00am 28.8 - 21.3 64 5.1 - - - - - 1015.0 1009.5 0.0
22/09:30am 27.8 - 21.1 67 4.5 - - - - - 1015.2 1009.8 0.0
22/09:00am 27.4 - 20.7 67 4.5 - - - - - 1015.1 1009.6 0.0
22/08:30am 26.7 - 21.9 75 3.3 - - - - - 1014.9 1009.4 0.0
22/08:00am 25.9 - 22.8 83 2.1 - - - - - 1014.7 1009.2 0.0
22/07:30am 25.2 - 21.7 81 2.4 - - - - - 1014.6 1009.1 0.0
22/07:26am 25.1 - 22.0 83 2.1 - - - - - 1014.6 1009.1 0.0
22/07:13am 24.6 - 22.1 86 1.7 - - - - - 1014.5 1009.0 0.0
22/07:00am 24.7 - 22.0 85 1.8 - - - - - 1014.4 1008.9 0.0
22/06:59am 24.7 - 22.0 85 1.8 - - - - - 1014.4 1008.9 0.0
22/06:30am 24.8 - 22.1 85 1.8 - - - - - 1014.2 1008.7 0.0
22/06:00am 24.4 - 22.1 87 1.6 - - - - - 1014.2 1008.7 0.0
22/05:30am 24.4 - 22.5 89 1.3 - - - - - 1013.8 1008.4 0.0
22/05:00am 24.4 - 22.1 87 1.6 - - - - - 1013.6 1008.1 0.0
22/04:30am 24.6 - 22.3 87 1.6 - - - - - 1013.2 1007.7 0.0
22/04:00am 25.5 - 23.4 88 1.5 - - - - - 1013.0 1007.5 0.0
22/03:59am 25.5 - 23.4 88 1.5 - - - - - 1013.0 1007.5 0.0
22/03:30am 25.7 - 23.2 86 1.7 - - - - - 1013.1 1007.6 0.0
22/03:00am 25.6 - 23.5 88 1.5 - - - - - 1013.2 1007.7 0.0
22/02:30am 25.7 - 23.4 87 1.6 - - - - - 1013.4 1007.9 0.0
22/02:00am 25.7 - 23.4 87 1.6 - - - - - 1013.5 1008.0 0.0
22/01:30am 25.9 - 23.4 86 1.7 - - - - - 1013.7 1008.3 0.0
22/01:00am 26.2 - 23.7 86 1.7 - - - - - 1014.2 1008.7 0.0
22/12:30am 26.3 - 23.8 86 1.8 - - - - - 1014.2 1008.7 0.0
22/12:00am 26.3 - 23.6 85 1.9 - - - - - 1014.3 1008.8 0.0
 
Date/Time
WST
Temp
°C
App
Temp
°C
Dew
Point
°C
Rel
Hum
%
Delta-T
°C
Wind Press
QNH
hPa
Press
MSL
hPa
Rain since
9am
mm
Dir  Spd
km/h
Gust
km/h
Spd
kts
Gust
kts
21/11:30pm 26.4 - 23.3 83 2.2 - - - - - 1014.5 1009.0 0.0
21/11:00pm 26.7 - 22.8 79 2.7 - - - - - 1014.4 1008.9 0.0
21/10:30pm 27.1 - 22.1 74 3.4 - - - - - 1014.3 1008.8 0.0
21/10:00pm 27.6 - 22.3 73 3.7 - - - - - 1014.4 1008.9 0.0
21/09:30pm 28.1 - 22.8 73 3.7 - - - - - 1013.7 1008.3 0.0
21/09:00pm 29.2 - 21.7 64 5.2 - - - - - 1013.5 1008.0 0.0
21/08:30pm 29.8 - 21.5 61 5.7 - - - - - 1013.3 1007.8 0.0
21/08:00pm 30.3 - 20.5 55 6.6 - - - - - 1012.8 1007.3 0.0
21/07:30pm 30.6 - 20.5 54 6.9 - - - - - 1011.9 1006.4 0.0
21/07:00pm 31.1 - 20.1 52 7.4 - - - - - 1011.4 1005.9 0.0
21/06:30pm 31.5 - 19.8 49 7.9 - - - - - 1011.2 1005.7 0.0
21/06:00pm 32.0 - 19.6 47 8.4 - - - - - 1010.8 1005.3 0.0
21/05:30pm 32.2 - 19.5 47 8.5 - - - - - 1010.6 1005.0 0.0
21/05:00pm 32.2 - 19.8 48 8.4 - - - - - 1010.3 1004.8 0.0
21/04:30pm 31.7 - 19.0 47 8.5 - - - - - 1010.5 1004.9 0.0
21/04:00pm 32.0 - 18.9 45 8.7 - - - - - 1010.6 1005.0 0.0
21/03:30pm 31.9 - 19.2 47 8.5 - - - - - 1010.8 1005.3 0.0
21/03:00pm 31.9 - 19.2 47 8.5 - - - - - 1011.1 1005.6 0.0
21/02:30pm 31.7 - 19.0 47 8.5 - - - - - 1011.3 1005.8 0.0
21/02:00pm 31.2 - 19.2 48 8.0 - - - - - 1011.6 1006.1 0.0
21/01:30pm 31.4 - 19.4 49 8.0 - - - - - 1011.8 1006.3 0.0
21/01:00pm 31.6 - 19.6 49 8.1 - - - - - 1012.4 1006.9 0.0
21/12:30pm 30.9 - 19.6 51 7.6 - - - - - 1012.8 1007.3 0.0
21/12:00pm 30.3 - 19.3 51 7.3 - - - - - 1013.1 1007.6 0.0
21/11:30am 30.3 - 20.0 54 6.9 - - - - - 1013.4 1007.9 0.0
21/11:00am 29.7 - 19.7 55 6.7 - - - - - 1013.6 1008.1 0.0
21/10:30am 29.1 - 20.3 59 5.9 - - - - - 1013.8 1008.4 0.0
21/10:00am 28.4 - 20.2 61 5.5 - - - - - 1014.1 1008.6 0.0
21/09:30am 27.2 - 20.3 66 4.6 - - - - - 1014.2 1008.7 0.0
21/09:00am 26.1 - 19.5 67 4.4 - - - - - 1014.0 1008.5 16.0
21/08:30am 26.1 - 19.7 68 4.2 - - - - - 1013.6 1008.1 16.0
21/08:00am 25.5 - 19.4 69 4.0 - - - - - 1013.4 1007.9 16.0
21/07:30am 25.4 - 18.8 67 4.3 - - - - - 1013.2 1007.7 16.0
21/07:00am 24.2 - 19.3 74 3.2 - - - - - 1012.9 1007.4 16.0
21/06:30am 24.0 - 19.3 75 3.1 - - - - - 1012.5 1007.0 16.0
21/06:00am 23.8 - 19.1 75 3.1 - - - - - 1012.3 1006.8 16.0
21/05:30am 23.8 - 19.3 76 2.9 - - - - - 1012.1 1006.7 16.0
21/05:00am 23.5 - 19.0 76 2.9 - - - - - 1012.0 1006.5 16.0
21/04:30am 23.9 23.5 19.0 74 3.2 E 19 24 10 13 1011.9 1006.4 16.0
21/04:00am 24.6 23.3 18.1 67 4.2 E 22 35 12 19 1012.0 1006.5 16.0
21/03:30am 24.4 24.2 18.6 70 3.8 E 17 22 9 12 1012.1 1006.7 16.0
21/03:00am 24.6 24.4 18.5 69 4.0 E 17 19 9 10 1012.4 1006.9 16.0
21/02:30am 24.1 - 19.6 76 3.0 - - - - - 1012.7 1007.2 16.0
21/02:00am 24.7 - 18.6 69 4.0 - - - - - 1012.8 1007.3 16.0
21/01:30am 24.0 24.2 20.5 81 2.3 E 20 24 11 13 1013.2 1007.7 16.0
21/01:00am 23.9 - 20.2 80 2.5 - - - - - 1014.0 1008.5 16.0
21/12:30am 23.3 26.1 20.8 86 1.7 SE 7 9 4 5 1014.4 1008.9 16.0
21/12:00am 22.7 25.9 21.2 91 1.0 SSE 6 9 3 5 1015.2 1009.8 16.0
 
Date/Time
WST
Temp
°C
App
Temp
°C
Dew
Point
°C
Rel
Hum
%
Delta-T
°C
Wind Press
QNH
hPa
Press
MSL
hPa
Rain since
9am
mm
Dir  Spd
km/h
Gust
km/h
Spd
kts
Gust
kts
20/11:30pm 22.4 25.4 20.9 91 1.0 WSW 6 9 3 5 1016.2 1010.7 15.8
20/11:00pm 22.5 25.4 21.1 92 0.9 W 7 11 4 6 1016.5 1011.0 15.6
20/10:30pm 22.4 25.4 21.2 93 0.8 WSW 7 9 4 5 1016.3 1010.8 15.4
20/10:00pm 22.3 25.1 21.6 96 0.5 SW 9 13 5 7 1016.2 1010.7 14.8
20/09:30pm 22.3 24.5 21.1 93 0.8 SW 11 17 6 9 1016.4 1010.9 13.0
20/09:00pm 22.6 24.0 21.8 95 0.5 WSW 17 26 9 14 1015.5 1010.1 11.6
20/08:47pm 22.6 22.3 21.8 95 0.5 WSW 26 33 14 18 1014.8 1009.3 11.4
20/08:30pm 22.6 23.0 21.8 95 0.5 WSW 22 26 12 14 1014.8 1009.3 10.6
20/08:03pm 23.5 23.6 21.2 87 1.5 WNW 22 33 12 18 1014.7 1009.2 2.6
20/08:00pm 23.8 23.5 21.1 85 1.8 WNW 24 41 13 22 1014.7 1009.2 1.4
20/07:52pm 24.0 22.7 21.3 85 1.8 WNW 30 41 16 22 1014.0 1008.5 0.8
20/07:30pm 25.1 23.3 21.2 79 2.6 W 32 35 17 19 1011.9 1006.4 0.2
20/07:00pm 27.7 22.5 18.7 58 5.9 W 44 54 24 29 1010.2 1004.7 0.0
20/06:30pm 30.1 25.3 17.5 46 8.2 W 39 46 21 25 1009.2 1003.7 0.0
20/06:00pm 30.1 - 17.5 46 8.2 - - - - - 1008.4 1002.9 0.0
20/05:56pm 30.6 - 17.7 46 8.4 - - - - - 1008.5 1003.0 0.0
20/05:30pm 35.8 - 14.4 27 13.6 - - - - - 1007.9 1002.4 0.0
20/05:00pm 35.5 - 14.7 28 13.3 - - - - - 1007.7 1002.2 0.0
20/04:30pm 36.0 - 15.2 29 13.3 - - - - - 1007.5 1001.9 0.0
20/04:00pm 36.6 - 15.7 29 13.5 - - - - - 1007.7 1002.2 0.0
20/03:30pm 36.7 - 16.3 30 13.3 - - - - - 1008.0 1002.5 0.0
20/03:00pm 36.9 - 15.4 28 13.9 - - - - - 1008.4 1002.9 0.0
20/02:30pm 36.2 - 14.8 28 13.7 - - - - - 1009.1 1003.5 0.0
20/02:00pm 36.5 - 15.0 27 13.8 - - - - - 1009.4 1003.9 0.0
20/01:30pm 36.1 - 15.8 30 13.1 - - - - - 1009.8 1004.3 0.0
20/01:00pm 34.9 - 15.7 31 12.4 - - - - - 1010.2 1004.7 0.0
20/12:30pm 35.4 - 16.7 33 12.2 - - - - - 1010.7 1005.2 0.0
20/12:00pm 35.1 - 16.9 34 11.9 - - - - - 1011.0 1005.5 0.0
20/11:30am 33.8 - 17.5 38 10.7 - - - - - 1011.3 1005.8 0.0
20/11:00am 33.2 - 17.4 39 10.4 - - - - - 1011.8 1006.3 0.0
20/10:30am 32.7 - 17.7 40 9.9 - - - - - 1012.1 1006.7 0.0
20/10:00am 32.1 - 17.2 41 9.7 - - - - - 1012.4 1006.9 0.0
20/09:30am 31.5 - 16.6 40 9.6 - - - - - 1012.6 1007.1 0.0
20/09:00am 30.7 - 16.7 43 9.0 - - - - - 1012.7 1007.2 0.0
20/08:30am 29.5 - 18.3 51 7.4 - - - - - 1012.7 1007.2 0.0
20/08:00am 28.7 - 18.2 53 6.9 - - - - - 1012.6 1007.1 0.0
20/07:30am 26.6 - 18.5 61 5.3 - - - - - 1012.6 1007.1 0.0
20/07:00am 26.1 - 18.5 63 5.0 - - - - - 1012.4 1006.9 0.0
20/06:30am 25.7 - 18.1 63 4.9 - - - - - 1012.1 1006.7 0.0
20/06:00am 25.2 - 17.9 64 4.7 - - - - - 1012.0 1006.5 0.0
20/05:30am 25.5 - 17.7 62 5.0 - - - - - 1012.0 1006.5 0.0
20/05:00am 25.7 - 18.4 64 4.7 - - - - - 1011.9 1006.4 0.0
20/04:30am 26.5 - 17.8 58 5.6 - - - - - 1012.1 1006.7 0.0
20/04:00am 25.8 - 18.0 62 5.0 - - - - - 1011.4 1005.9 0.0
20/03:30am 25.4 - 18.1 64 4.7 - - - - - 1011.2 1005.7 0.0
20/03:00am 25.5 - 18.2 64 4.7 - - - - - 1011.4 1005.9 0.0
20/02:30am 25.5 - 18.4 65 4.6 - - - - - 1011.7 1006.2 0.0
20/02:00am 26.5 - 18.4 61 5.3 - - - - - 1012.0 1006.5 0.0
20/01:30am 26.2 - 19.3 65 4.5 - - - - - 1012.1 1006.7 0.0
20/01:00am 26.2 - 19.1 65 4.7 - - - - - 1012.3 1006.8 0.0
20/12:30am 26.2 - 19.1 65 4.7 - - - - - 1012.5 1007.0 0.0
20/12:00am 26.1 - 19.2 65 4.5 - - - - - 1012.5 1007.0 0.0
 
Date/Time
WST
Temp
°C
App
Temp
°C
Dew
Point
°C
Rel
Hum
%
Delta-T
°C
Wind Press
QNH
hPa
Press
MSL
hPa
Rain since
9am
mm
Dir  Spd
km/h
Gust
km/h
Spd
kts
Gust
kts
19/11:30pm 26.3 - 18.7 63 5.0 - - - - - 1012.3 1006.8 0.0
19/11:00pm 28.0 - 18.7 57 6.1 - - - - - 1012.5 1007.0 0.0
19/10:30pm 29.7 24.4 17.2 47 8.1 W 41 50 22 27 1012.0 1006.5 0.0
19/10:00pm 32.3 - 14.9 35 11.0 - - - - - 1011.2 1005.7 0.0
19/09:30pm 32.6 - 15.6 36 10.8 - - - - - 1010.9 1005.4 0.0
19/09:00pm 32.6 - 15.6 36 10.9 - - - - - 1010.7 1005.2 0.0
19/08:30pm 32.3 - 15.7 36 10.6 - - - - - 1010.2 1004.7 0.0
19/08:00pm 33.2 - 14.8 33 11.6 - - - - - 1009.9 1004.4 0.0
19/07:30pm 33.8 - 14.3 31 12.3 - - - - - 1009.7 1004.2 0.0
19/07:00pm 33.9 - 15.4 33 11.8 - - - - - 1009.0 1003.4 0.0
19/06:30pm 35.9 - 13.4 26 14.1 - - - - - 1008.2 1002.7 0.0
19/06:00pm 35.9 - 14.0 27 13.8 - - - - - 1007.9 1002.4 0.0
19/05:30pm 37.1 - 14.4 26 14.4 - - - - - 1007.7 1002.2 0.0
19/05:00pm 37.8 - 14.4 25 15.0 - - - - - 1007.6 1002.0 0.0
19/04:30pm 36.8 - 13.5 24 14.6 - - - - - 1008.0 1002.5 0.0
19/04:00pm 36.8 - 13.5 24 14.7 - - - - - 1008.4 1002.9 0.0
19/03:30pm 37.2 - 13.9 25 14.7 - - - - - 1008.9 1003.3 0.0
19/03:00pm 36.7 - 14.1 26 14.3 - - - - - 1009.1 1003.5 0.0
19/02:30pm 36.7 - 14.1 26 14.3 - - - - - 1009.5 1004.0 0.0
19/02:00pm 36.7 - 14.6 26 14.1 - - - - - 1009.8 1004.3 0.0
19/01:30pm 35.9 - 14.5 27 13.6 - - - - - 1010.5 1004.9 0.0
19/01:00pm 35.1 - 14.4 29 13.1 - - - - - 1010.9 1005.4 0.0
19/12:30pm 33.9 - 14.9 32 12.0 - - - - - 1011.7 1006.2 0.0

Other formats

Comma delimited format used in spreadsheet applications
http://www.bom.gov.au/fwo/IDW60801/IDW60801.99217.axf

JavaScript Object Notation format (JSON) in row-major order
http://www.bom.gov.au/fwo/IDW60801/IDW60801.99217.json

Data quality

Most of these data are generated automatically and are frequently updated. Quality checks on data are not normally performed. It is possible for incorrect values to appear. Refer to information at About Latest Weather Observations and please check the disclaimer before using these data.